createdAt,value
2018-05-17T00:00:30.295Z,89.29
2018-05-17T00:03:00.349Z,89.07
2018-05-17T00:05:31.345Z,88.97
2018-05-17T00:07:59.778Z,88.76
2018-05-17T00:10:28.205Z,88.74
2018-05-17T00:12:57.977Z,88.58
2018-05-17T00:15:26.605Z,88.59
2018-05-17T00:17:54.939Z,88.63
2018-05-17T00:20:24.063Z,88.61
2018-05-17T00:22:52.385Z,88.42
2018-05-17T00:25:20.741Z,88.22
2018-05-17T00:27:49.112Z,88.45
2018-05-17T00:30:17.454Z,88.42
2018-05-17T00:32:45.817Z,88.34
2018-05-17T00:35:15.000Z,88.41
2018-05-17T00:37:44.146Z,88.35
2018-05-17T00:40:12.463Z,87.73
2018-05-17T00:42:40.838Z,87.71
2018-05-17T00:45:09.227Z,87.62
2018-05-17T00:47:37.564Z,87.35
2018-05-17T00:50:05.933Z,87.48
2018-05-17T00:52:34.307Z,87.60
2018-05-17T00:55:02.700Z,87.58
2018-05-17T00:57:31.029Z,87.72
2018-05-17T01:00:00.160Z,87.70
2018-05-17T01:02:28.500Z,87.80
2018-05-17T01:04:57.627Z,87.81
2018-05-17T01:07:25.984Z,87.84
2018-05-17T01:09:55.107Z,87.93
2018-05-17T01:12:23.449Z,88.05
2018-05-17T01:14:52.575Z,88.09
2018-05-17T01:17:20.939Z,88.11
2018-05-17T01:19:49.283Z,88.33
2018-05-17T01:22:17.674Z,88.40
2018-05-17T01:24:46.793Z,88.31
2018-05-17T01:27:15.194Z,88.36
2018-05-17T01:29:43.576Z,88.52
2018-05-17T01:32:11.929Z,88.58
2018-05-17T01:34:40.304Z,88.53
2018-05-17T01:37:26.304Z,88.67
2018-05-17T01:39:54.676Z,88.78
2018-05-17T01:42:23.024Z,88.93
2018-05-17T01:44:51.379Z,89.08
2018-05-17T01:47:19.723Z,89.16
2018-05-17T01:49:48.042Z,89.30
2018-05-17T01:52:16.392Z,89.36
2018-05-17T01:54:44.718Z,89.43
2018-05-17T01:57:13.852Z,89.54
2018-05-17T01:59:42.210Z,89.72
2018-05-17T02:02:10.640Z,89.69
2018-05-17T02:04:39.316Z,89.81
2018-05-17T02:07:07.828Z,89.82
2018-05-17T02:09:36.340Z,89.78
2018-05-17T02:12:05.577Z,89.84
2018-05-17T02:14:33.895Z,89.81
2018-05-17T02:17:03.101Z,89.83
2018-05-17T02:19:32.324Z,89.84
2018-05-17T02:22:00.692Z,89.83
2018-05-17T02:24:29.031Z,89.85
2018-05-17T02:26:57.374Z,89.81
2018-05-17T02:29:25.756Z,89.68
2018-05-17T02:31:54.896Z,89.74
2018-05-17T02:34:24.002Z,89.81
2018-05-17T02:36:53.139Z,89.88
2018-05-17T02:39:21.578Z,90.06
2018-05-17T02:41:50.677Z,90.12
2018-05-17T02:44:19.960Z,90.13
2018-05-17T02:46:48.446Z,90.31
2018-05-17T02:49:17.635Z,90.30
2018-05-17T02:51:45.976Z,90.26
2018-05-17T02:54:14.368Z,90.19
2018-05-17T02:56:43.068Z,90.12
2018-05-17T02:59:11.459Z,90.26
2018-05-17T03:01:40.545Z,90.38
2018-05-17T03:04:09.773Z,90.40
2018-05-17T03:06:38.129Z,90.49
2018-05-17T03:09:06.484Z,90.50
2018-05-17T03:11:34.839Z,90.45
2018-05-17T03:14:03.196Z,90.22
2018-05-17T03:16:31.587Z,90.27
2018-05-17T03:19:00.681Z,90.33
2018-05-17T03:21:29.126Z,90.12
2018-05-17T03:23:58.218Z,89.97
2018-05-17T03:26:27.352Z,89.70
2018-05-17T03:28:56.119Z,89.60
2018-05-17T03:31:25.314Z,89.42
2018-05-17T03:33:54.599Z,89.44
2018-05-17T03:36:23.773Z,89.45
2018-05-17T03:38:52.747Z,88.91
2018-05-17T03:41:21.071Z,88.68
2018-05-17T03:43:50.175Z,88.59
2018-05-17T03:46:18.645Z,88.40
2018-05-17T03:48:47.003Z,87.88
2018-05-17T03:51:16.187Z,87.69
2018-05-17T03:53:44.896Z,87.37
2018-05-17T03:56:14.837Z,87.10
2018-05-17T03:58:43.182Z,86.91
2018-05-17T04:01:29.902Z,86.69
2018-05-17T04:04:17.800Z,85.94
2018-05-17T04:06:46.152Z,86.15
2018-05-17T04:09:14.552Z,85.93
2018-05-17T04:11:42.954Z,85.27
2018-05-17T04:14:12.053Z,85.07
2018-05-17T04:16:40.529Z,84.85
2018-05-17T04:19:09.011Z,84.56
2018-05-17T04:21:37.411Z,84.28
2018-05-17T04:24:05.824Z,84.10
2018-05-17T04:26:34.202Z,84.00
2018-05-17T04:29:02.558Z,83.94
2018-05-17T04:31:30.919Z,83.52
2018-05-17T04:34:00.169Z,82.88
2018-05-17T04:36:28.535Z,82.29
2018-05-17T04:38:56.915Z,82.08
2018-05-17T04:41:25.245Z,81.76
2018-05-17T04:43:54.310Z,81.40
2018-05-17T04:46:22.907Z,81.38
2018-05-17T04:48:51.273Z,81.40
2018-05-17T04:51:20.537Z,81.18
2018-05-17T04:53:49.622Z,80.90
2018-05-17T04:56:18.563Z,80.67
2018-05-17T04:58:46.935Z,80.23
2018-05-17T05:01:15.285Z,79.86
2018-05-17T05:03:44.399Z,79.63
2018-05-17T05:06:12.878Z,79.52
2018-05-17T05:08:41.384Z,79.30
2018-05-17T05:11:09.715Z,78.86
2018-05-17T05:13:38.116Z,79.27
2018-05-17T05:16:06.946Z,79.18
2018-05-17T05:18:36.199Z,79.51
2018-05-17T05:21:04.637Z,79.50
2018-05-17T05:23:33.022Z,79.02
2018-05-17T05:26:01.861Z,78.92
2018-05-17T05:28:30.286Z,78.37
2018-05-17T05:30:58.642Z,78.44
2018-05-17T05:33:27.003Z,78.78
2018-05-17T05:35:55.362Z,78.81
2018-05-17T05:38:23.754Z,78.30
2018-05-17T05:40:53.219Z,78.29
2018-05-17T05:43:21.601Z,78.07
2018-05-17T05:45:50.532Z,78.10
2018-05-17T05:48:18.860Z,77.90
2018-05-17T05:50:48.214Z,77.15
2018-05-17T05:53:16.559Z,76.93
2018-05-17T05:55:45.653Z,76.51
2018-05-17T05:58:14.000Z,76.54
2018-05-17T06:00:42.366Z,76.26
2018-05-17T06:03:11.518Z,75.89
2018-05-17T06:05:41.750Z,76.15
2018-05-17T06:08:27.211Z,76.15
2018-05-17T06:10:55.710Z,76.01
2018-05-17T06:13:25.091Z,75.03
2018-05-17T06:15:53.862Z,74.21
2018-05-17T06:18:23.378Z,73.59
2018-05-17T06:20:54.477Z,72.78
2018-05-17T06:23:24.032Z,72.27
2018-05-17T06:25:52.379Z,72.62
2018-05-17T06:28:21.595Z,71.55
2018-05-17T06:30:50.766Z,71.73
2018-05-17T06:33:22.044Z,71.45
2018-05-17T06:35:51.401Z,71.21
2018-05-17T06:38:20.529Z,71.15
2018-05-17T06:40:48.890Z,70.64
2018-05-17T06:43:18.136Z,69.90
2018-05-17T06:45:46.525Z,70.54
2018-05-17T06:48:14.871Z,70.36
2018-05-17T06:50:44.281Z,70.89
2018-05-17T06:53:12.698Z,70.04
2018-05-17T06:55:41.043Z,70.33
2018-05-17T06:58:09.409Z,70.49
2018-05-17T07:00:37.831Z,70.35
2018-05-17T07:03:07.592Z,69.51
2018-05-17T07:05:35.951Z,69.73
2018-05-17T07:08:04.325Z,69.19
2018-05-17T07:10:33.463Z,68.55
2018-05-17T07:13:01.825Z,67.73
2018-05-17T07:15:30.359Z,67.60
2018-05-17T07:17:58.821Z,66.53
2018-05-17T07:20:27.912Z,65.99
2018-05-17T07:22:56.259Z,66.12
2018-05-17T07:25:24.648Z,65.33
2018-05-17T07:27:53.010Z,65.25
2018-05-17T07:30:21.367Z,64.56
2018-05-17T07:32:50.487Z,64.20
2018-05-17T07:35:18.898Z,64.39
2018-05-17T07:37:47.255Z,64.54
2018-05-17T07:40:15.614Z,64.26
2018-05-17T07:42:44.075Z,63.81
2018-05-17T07:45:13.662Z,64.05
2018-05-17T07:47:42.817Z,64.40
2018-05-17T07:50:11.137Z,64.02
2018-05-17T07:52:39.481Z,62.72
2018-05-17T07:55:07.885Z,61.91
2018-05-17T07:57:36.227Z,60.54
2018-05-17T08:00:04.586Z,61.17
2018-05-17T08:02:32.931Z,60.09
2018-05-17T08:05:02.078Z,59.53
2018-05-17T08:07:30.410Z,59.34
2018-05-17T08:09:59.167Z,58.99
2018-05-17T08:12:27.513Z,60.97
2018-05-17T08:14:55.886Z,61.01
2018-05-17T08:17:24.206Z,61.04
2018-05-17T08:19:52.585Z,60.77
2018-05-17T08:22:20.966Z,61.17
2018-05-17T08:24:49.351Z,61.50
2018-05-17T08:27:18.505Z,60.14
2018-05-17T08:29:46.856Z,59.14
2018-05-17T08:32:15.612Z,58.11
2018-05-17T08:34:43.971Z,58.05
2018-05-17T08:37:12.296Z,58.88
2018-05-17T08:39:40.677Z,58.80
2018-05-17T08:42:09.054Z,58.36
2018-05-17T08:44:37.845Z,58.61
2018-05-17T08:47:06.192Z,58.96
2018-05-17T08:49:34.814Z,58.28
2018-05-17T08:52:04.115Z,58.58
2018-05-17T08:54:32.435Z,58.38
2018-05-17T08:57:00.810Z,57.71
2018-05-17T08:59:30.658Z,55.59
2018-05-17T09:01:59.772Z,54.68
2018-05-17T09:04:28.127Z,56.27
2018-05-17T09:06:57.267Z,55.40
2018-05-17T09:09:25.620Z,55.53
2018-05-17T09:11:53.947Z,55.83
2018-05-17T09:14:22.303Z,54.60
2018-05-17T09:16:50.663Z,55.06
2018-05-17T09:19:19.046Z,54.81
2018-05-17T09:21:47.380Z,54.23
2018-05-17T09:24:16.516Z,54.90
2018-05-17T09:26:44.891Z,53.50
2018-05-17T09:29:13.237Z,53.96
2018-05-17T09:31:42.357Z,53.44
2018-05-17T09:34:10.722Z,53.19
2018-05-17T09:36:39.078Z,53.55
2018-05-17T09:39:07.465Z,53.16
2018-05-17T09:41:36.637Z,54.96
2018-05-17T09:44:05.013Z,53.91
2018-05-17T09:46:33.436Z,53.78
2018-05-17T09:49:01.799Z,52.59
2018-05-17T09:51:30.946Z,52.67
2018-05-17T09:53:59.288Z,53.01
2018-05-17T09:56:27.680Z,52.04
2018-05-17T09:58:56.016Z,51.68
2018-05-17T10:01:24.340Z,50.86
2018-05-17T10:03:52.707Z,51.87
2018-05-17T10:06:21.078Z,51.02
2018-05-17T10:08:49.415Z,49.94
2018-05-17T10:11:17.804Z,49.81
2018-05-17T10:13:46.951Z,50.04
2018-05-17T10:16:15.298Z,48.67
2018-05-17T10:18:45.360Z,49.42
2018-05-17T10:21:13.713Z,48.14
2018-05-17T10:23:42.073Z,46.81
2018-05-17T10:26:11.212Z,45.64
2018-05-17T10:28:39.609Z,45.36
2018-05-17T10:31:08.020Z,44.04
2018-05-17T10:33:36.304Z,43.86
2018-05-17T10:36:04.642Z,43.10
2018-05-17T10:38:33.039Z,42.98
2018-05-17T10:41:01.462Z,43.08
2018-05-17T10:43:29.863Z,43.02
2018-05-17T10:45:58.224Z,42.44
2018-05-17T10:48:26.640Z,42.40
2018-05-17T10:50:55.010Z,42.30
2018-05-17T10:53:23.344Z,42.11
2018-05-17T10:55:51.704Z,43.01
2018-05-17T10:58:20.805Z,43.48
2018-05-17T11:00:49.172Z,43.75
2018-05-17T11:03:18.268Z,44.94
2018-05-17T11:05:47.395Z,43.58
2018-05-17T11:08:15.740Z,44.09
2018-05-17T11:13:35.366Z,44.58
2018-05-17T11:16:03.809Z,44.27
2018-05-17T11:18:32.940Z,44.06
2018-05-17T11:21:01.291Z,43.98
2018-05-17T11:23:30.472Z,44.33
2018-05-17T11:25:59.165Z,44.65
2018-05-17T11:28:27.464Z,43.63
2018-05-17T11:30:56.657Z,44.61
2018-05-17T11:33:25.980Z,45.34
2018-05-17T11:35:54.323Z,45.38
2018-05-17T11:38:23.464Z,45.97
2018-05-17T11:40:51.790Z,44.65
2018-05-17T11:43:20.902Z,44.98
2018-05-17T11:45:49.275Z,46.02
2018-05-17T11:48:18.382Z,44.76
2018-05-17T11:50:46.863Z,44.71
2018-05-17T11:53:15.814Z,45.16
2018-05-17T11:55:44.191Z,45.83
2018-05-17T11:58:12.985Z,46.31
2018-05-17T12:00:41.324Z,44.82
2018-05-17T12:03:09.674Z,44.98
2018-05-17T12:05:38.095Z,45.84
2018-05-17T12:08:07.190Z,48.48
2018-05-17T12:10:35.570Z,48.53
2018-05-17T12:13:03.931Z,49.66
2018-05-17T12:15:32.261Z,50.50
2018-05-17T12:18:01.403Z,51.45
2018-05-17T12:20:30.643Z,52.10
2018-05-17T12:22:59.072Z,52.37
2018-05-17T12:25:27.359Z,52.01
2018-05-17T12:27:55.725Z,53.38
2018-05-17T12:30:24.059Z,53.36
2018-05-17T12:32:53.191Z,53.03
2018-05-17T12:35:21.562Z,53.68
2018-05-17T12:37:49.899Z,54.13
2018-05-17T12:40:18.274Z,54.36
2018-05-17T12:42:46.650Z,54.48
2018-05-17T12:45:14.969Z,54.42
2018-05-17T12:47:43.744Z,54.86
2018-05-17T12:50:12.866Z,55.69
2018-05-17T12:52:41.206Z,55.28
2018-05-17T12:55:09.600Z,55.11
2018-05-17T12:57:38.731Z,55.52
2018-05-17T13:00:07.448Z,55.97
2018-05-17T13:02:35.786Z,56.30
2018-05-17T13:05:04.175Z,55.75
2018-05-17T13:07:32.524Z,55.50
2018-05-17T13:10:00.900Z,54.52
2018-05-17T13:12:29.307Z,55.59
2018-05-17T13:14:57.648Z,55.51
2018-05-17T13:17:26.087Z,55.50
2018-05-17T13:19:55.154Z,55.61
2018-05-17T13:22:23.481Z,54.88
2018-05-17T13:24:51.871Z,54.52
2018-05-17T13:27:21.712Z,54.57
2018-05-17T13:29:50.096Z,54.82
2018-05-17T13:32:19.440Z,54.52
2018-05-17T13:34:47.776Z,54.20
2018-05-17T13:37:16.974Z,53.97
2018-05-17T13:39:47.541Z,53.99
2018-05-17T13:42:15.878Z,53.17
2018-05-17T13:44:45.001Z,52.94
2018-05-17T13:47:15.426Z,53.46
2018-05-17T13:49:43.775Z,52.49
2018-05-17T13:52:12.152Z,52.55
2018-05-17T13:54:41.073Z,52.50
2018-05-17T13:57:09.422Z,52.39
2018-05-17T13:59:37.790Z,52.15
2018-05-17T14:02:06.173Z,52.30
2018-05-17T14:04:34.530Z,52.37
2018-05-17T14:07:03.682Z,52.77
2018-05-17T14:09:32.899Z,52.63
2018-05-17T14:12:01.318Z,52.56
2018-05-17T14:14:29.684Z,52.78
2018-05-17T14:16:58.080Z,52.63
2018-05-17T14:19:26.417Z,52.12
2018-05-17T14:21:54.784Z,51.80
2018-05-17T14:24:23.150Z,52.44
2018-05-17T14:26:51.559Z,52.20
2018-05-17T14:29:19.931Z,51.11
2018-05-17T14:31:49.917Z,51.32
2018-05-17T14:34:18.286Z,51.47
2018-05-17T14:36:46.727Z,51.73
2018-05-17T14:39:15.138Z,52.14
2018-05-17T14:41:43.546Z,51.71
2018-05-17T14:44:11.947Z,51.92
2018-05-17T14:46:42.242Z,51.21
2018-05-17T14:49:10.702Z,51.41
2018-05-17T14:51:39.080Z,51.91
2018-05-17T14:54:07.466Z,52.06
2018-05-17T14:56:39.913Z,51.80
2018-05-17T14:59:09.037Z,51.38
2018-05-17T15:01:38.125Z,50.64
2018-05-17T15:04:06.436Z,50.76
2018-05-17T15:06:35.511Z,50.32
2018-05-17T15:09:03.905Z,50.55
2018-05-17T15:11:32.341Z,51.15
2018-05-17T15:14:00.735Z,50.72
2018-05-17T15:16:29.174Z,50.76
2018-05-17T15:18:58.277Z,51.03
2018-05-17T15:21:26.671Z,50.51
2018-05-17T15:23:55.051Z,50.73
2018-05-17T15:26:24.199Z,50.67
2018-05-17T15:28:52.926Z,50.67
2018-05-17T15:31:21.922Z,51.32
2018-05-17T15:33:51.190Z,50.99
2018-05-17T15:36:21.178Z,51.27
2018-05-17T15:38:49.510Z,51.33
2018-05-17T15:41:17.932Z,51.26
2018-05-17T15:43:46.277Z,51.62
2018-05-17T15:46:14.666Z,51.58
2018-05-17T15:48:43.038Z,50.86
2018-05-17T15:51:11.433Z,51.60
2018-05-17T15:53:39.877Z,51.34
2018-05-17T15:56:08.226Z,51.64
2018-05-17T15:58:37.756Z,52.00
2018-05-17T16:01:06.865Z,51.68
2018-05-17T16:03:36.296Z,51.64
2018-05-17T16:06:04.652Z,51.67
2018-05-17T16:08:33.003Z,52.37
2018-05-17T16:11:02.266Z,52.09
2018-05-17T16:13:30.643Z,52.04
2018-05-17T16:15:58.991Z,51.92
2018-05-17T16:18:27.346Z,51.66
2018-05-17T16:20:55.710Z,51.89
2018-05-17T16:23:25.244Z,51.69
2018-05-17T16:25:53.633Z,51.30
2018-05-17T16:28:22.809Z,51.48
2018-05-17T16:30:51.577Z,51.27
2018-05-17T16:33:21.790Z,51.16
2018-05-17T16:35:50.923Z,51.16
2018-05-17T16:38:19.270Z,50.94
2018-05-17T16:40:48.406Z,50.91
2018-05-17T16:43:16.777Z,50.78
2018-05-17T16:45:45.110Z,50.56
2018-05-17T16:48:14.371Z,50.72
2018-05-17T16:50:43.884Z,50.53
2018-05-17T16:53:13.230Z,50.06
2018-05-17T16:55:41.511Z,49.97
2018-05-17T16:58:09.875Z,49.71
2018-05-17T17:00:41.202Z,49.58
2018-05-17T17:03:11.326Z,49.20
2018-05-17T17:05:39.858Z,49.48
2018-05-17T17:08:09.206Z,49.41
2018-05-17T17:10:38.197Z,49.61
2018-05-17T17:13:07.127Z,49.19
2018-05-17T17:15:38.684Z,49.46
2018-05-17T17:18:07.633Z,49.60
2018-05-17T17:20:44.141Z,49.65
2018-05-17T17:23:13.857Z,50.40
2018-05-17T17:25:42.422Z,50.00
2018-05-17T17:28:13.134Z,50.25
2018-05-17T17:30:42.828Z,50.28
2018-05-17T17:33:11.261Z,50.54
2018-05-17T17:35:40.952Z,50.64
2018-05-17T17:38:09.869Z,50.75
2018-05-17T17:40:45.694Z,50.73
2018-05-17T17:43:15.028Z,50.76
2018-05-17T17:45:43.733Z,50.50
2018-05-17T17:48:14.692Z,50.69
2018-05-17T17:50:43.364Z,50.75
2018-05-17T17:53:12.028Z,50.60
2018-05-17T17:55:41.733Z,51.27
2018-05-17T17:58:10.249Z,51.04
2018-05-17T18:00:39.297Z,51.33
2018-05-17T18:03:07.690Z,51.78
2018-05-17T18:05:37.779Z,52.18
2018-05-17T18:08:06.144Z,52.53
2018-05-17T18:10:35.291Z,52.60
2018-05-17T18:13:03.696Z,53.29
2018-05-17T18:15:32.027Z,53.46
2018-05-17T18:18:01.164Z,53.68
2018-05-17T18:20:30.687Z,53.95
2018-05-17T18:22:59.092Z,54.58
2018-05-17T18:25:28.309Z,54.75
2018-05-17T18:27:56.695Z,54.31
2018-05-17T18:30:25.064Z,54.73
2018-05-17T18:32:53.424Z,55.13
2018-05-17T18:35:22.740Z,55.30
2018-05-17T18:37:51.123Z,55.74
2018-05-17T18:40:19.543Z,56.22
2018-05-17T18:42:47.960Z,57.03
2018-05-17T18:45:16.370Z,57.28
2018-05-17T18:47:45.308Z,57.16
2018-05-17T18:50:15.324Z,57.33
2018-05-17T18:52:44.861Z,57.36
2018-05-17T18:55:13.264Z,57.54
2018-05-17T18:57:41.676Z,56.71
2018-05-17T19:00:10.883Z,56.12
2018-05-17T19:02:40.144Z,56.11
2018-05-17T19:05:09.245Z,55.86
2018-05-17T19:07:37.739Z,56.09
2018-05-17T19:10:06.136Z,55.66
2018-05-17T19:12:36.178Z,55.76
2018-05-17T19:15:04.617Z,56.08
2018-05-17T19:17:32.981Z,56.47
2018-05-17T19:20:07.379Z,56.86
2018-05-17T19:22:36.846Z,57.44
2018-05-17T19:25:07.636Z,57.43
2018-05-17T19:27:36.935Z,57.28
2018-05-17T19:30:05.328Z,57.41
2018-05-17T19:32:34.487Z,57.96
2018-05-17T19:35:03.734Z,58.37
2018-05-17T19:37:32.894Z,58.34
2018-05-17T19:40:01.877Z,58.00
2018-05-17T19:42:30.344Z,57.86
2018-05-17T19:44:58.756Z,57.36
2018-05-17T19:47:27.215Z,57.26
2018-05-17T19:49:56.780Z,57.48
2018-05-17T19:52:26.005Z,57.89
2018-05-17T19:54:54.411Z,58.23
2018-05-17T19:57:22.777Z,58.24
2018-05-17T19:59:52.369Z,58.47
2018-05-17T20:02:20.728Z,58.54
2018-05-17T20:04:49.879Z,58.91
2018-05-17T20:07:18.248Z,59.08
2018-05-17T20:09:46.681Z,58.86
2018-05-17T20:12:15.419Z,58.71
2018-05-17T20:14:43.813Z,58.54
2018-05-17T20:17:12.156Z,58.86
2018-05-17T20:19:40.560Z,58.65
2018-05-17T20:22:08.923Z,58.73
2018-05-17T20:24:37.279Z,58.64
2018-05-17T20:27:11.681Z,58.77
2018-05-17T20:29:41.081Z,58.99
2018-05-17T20:32:10.280Z,58.56
2018-05-17T20:34:39.447Z,58.29
2018-05-17T20:37:07.830Z,57.96
2018-05-17T20:39:36.615Z,57.55
2018-05-17T20:42:05.053Z,57.75
2018-05-17T20:44:33.421Z,57.71
2018-05-17T20:47:01.807Z,57.79
2018-05-17T20:49:30.157Z,58.17
2018-05-17T20:51:59.314Z,58.45
2018-05-17T20:54:27.645Z,58.44
2018-05-17T20:56:55.995Z,58.48
2018-05-17T20:59:25.138Z,58.45
2018-05-17T21:01:53.495Z,58.59
2018-05-17T21:04:21.869Z,58.46
2018-05-17T21:06:50.197Z,58.53
2018-05-17T21:09:18.562Z,58.49
2018-05-17T21:11:46.911Z,58.53
2018-05-17T21:14:15.687Z,58.74
2018-05-17T21:16:44.073Z,58.95
2018-05-17T21:19:12.403Z,58.79
2018-05-17T21:21:40.797Z,59.17
2018-05-17T21:24:09.242Z,59.46
2018-05-17T21:26:37.592Z,59.66
2018-05-17T21:29:06.745Z,60.17
2018-05-17T21:31:35.098Z,60.18
2018-05-17T21:34:03.529Z,60.00
2018-05-17T21:36:31.825Z,60.41
2018-05-17T21:39:00.202Z,60.47
2018-05-17T21:41:28.575Z,60.36
2018-05-17T21:43:56.919Z,60.63
2018-05-17T21:46:25.311Z,60.94
2018-05-17T21:48:54.430Z,61.49
2018-05-17T21:51:22.765Z,61.93
2018-05-17T21:53:51.129Z,62.55
2018-05-17T21:56:19.488Z,62.76
2018-05-17T21:58:47.828Z,63.36
2018-05-17T22:01:16.200Z,63.15
2018-05-17T22:03:45.315Z,63.02
2018-05-17T22:06:13.708Z,62.85
2018-05-17T22:08:42.075Z,62.88
2018-05-17T22:11:10.442Z,63.21
2018-05-17T22:13:38.807Z,63.09
2018-05-17T22:16:08.703Z,62.91
2018-05-17T22:18:37.026Z,62.53
2018-05-17T22:21:05.425Z,62.58
2018-05-17T22:23:33.769Z,62.57
2018-05-17T22:26:02.240Z,63.07
2018-05-17T22:28:30.601Z,63.40
2018-05-17T22:30:59.774Z,63.78
2018-05-17T22:33:29.618Z,64.13
2018-05-17T22:35:58.803Z,64.14
2018-05-17T22:38:27.128Z,64.11
2018-05-17T22:40:55.575Z,64.13
2018-05-17T22:43:24.674Z,63.99
2018-05-17T22:45:53.008Z,64.44
2018-05-17T22:48:21.383Z,64.42
2018-05-17T22:50:49.763Z,64.49
2018-05-17T22:53:18.094Z,64.87
2018-05-17T22:55:46.420Z,65.53
2018-05-17T23:01:08.974Z,66.49
2018-05-17T23:03:37.367Z,66.37
2018-05-17T23:06:05.693Z,66.62
2018-05-17T23:08:34.038Z,66.70
2018-05-17T23:11:03.181Z,66.83
2018-05-17T23:13:31.541Z,66.89
2018-05-17T23:15:59.864Z,67.16
2018-05-17T23:18:28.252Z,67.44
2018-05-17T23:20:57.025Z,67.47
2018-05-17T23:23:25.382Z,68.02
2018-05-17T23:25:53.786Z,67.70
2018-05-17T23:28:22.146Z,67.80
2018-05-17T23:30:50.466Z,67.85
2018-05-17T23:33:19.610Z,68.23
2018-05-17T23:35:47.949Z,68.70
2018-05-17T23:38:17.090Z,68.76
2018-05-17T23:43:48.610Z,69.18
2018-05-17T23:46:17.874Z,68.74
2018-05-17T23:48:46.225Z,69.11
2018-05-17T23:51:14.562Z,69.29
2018-05-17T23:53:43.676Z,69.32
2018-05-17T23:56:12.764Z,69.46
2018-05-17T23:58:41.146Z,69.85
